Ah Gwah Ching, Minnesota
Current Conditions -  °F | °C
As of 5:15 PM on Wednesday 22 Oct 2014 (Local Time) from KY49 Reporting Station
Clear Clear  
Wind Chill: 56°   Ceiling: Unl
Heat Index: 56°   Visibility: 10mi
Dew Point: 42°   Wind: 12mph
Humidity: 59%   Direction: 150°SSE
Pressure: 29.93"   Gusts: 17mph
Location:  47.08°N, 94.57°W
Report Text: KY49 222215Z AUTO 15010G15KT 10SM CLR 14/06 A2993 RMK AO2 LTG DSNT SE T01350056
Loading
Personal Weather Stations






























Interactive Weather Map
Tropical Storm Tracking
New forecast layout! Learn more

10-Day Weather Forecast

Advertisements
Track Severe Weather on mobile